sensor_id;sensor_type;location;lat;lon;timestamp;P1;durP1;ratioP1;P2;durP2;ratioP2
32533;SDS011;18973;48.580;8.912;2023-11-21T00:00:19;6.88;;;1.98;;
32533;SDS011;18973;48.580;8.912;2023-11-21T00:02:45;2.33;;;1.88;;
32533;SDS011;18973;48.580;8.912;2023-11-21T00:05:11;6.28;;;2.75;;
32533;SDS011;18973;48.580;8.912;2023-11-21T00:07:42;4.30;;;2.28;;
32533;SDS011;18973;48.580;8.912;2023-11-21T00:10:09;6.93;;;2.50;;
32533;SDS011;18973;48.580;8.912;2023-11-21T00:12:36;6.82;;;2.38;;
32533;SDS011;18973;48.580;8.912;2023-11-21T00:15:02;3.92;;;2.17;;
32533;SDS011;18973;48.580;8.912;2023-11-21T00:17:30;6.63;;;2.22;;
32533;SDS011;18973;48.580;8.912;2023-11-21T00:19:59;9.35;;;2.85;;
32533;SDS011;18973;48.580;8.912;2023-11-21T00:22:25;12.82;;;2.50;;
32533;SDS011;18973;48.580;8.912;2023-11-21T00:24:50;4.18;;;2.00;;
32533;SDS011;18973;48.580;8.912;2023-11-21T00:27:16;6.00;;;2.38;;
32533;SDS011;18973;48.580;8.912;2023-11-21T00:29:42;6.63;;;2.22;;
32533;SDS011;18973;48.580;8.912;2023-11-21T00:32:07;4.60;;;1.60;;
32533;SDS011;18973;48.580;8.912;2023-11-21T00:34:34;5.97;;;2.40;;
32533;SDS011;18973;48.580;8.912;2023-11-21T00:36:59;2.95;;;2.03;;
32533;SDS011;18973;48.580;8.912;2023-11-21T00:39:25;3.60;;;2.08;;
32533;SDS011;18973;48.580;8.912;2023-11-21T00:41:51;9.80;;;1.98;;
32533;SDS011;18973;48.580;8.912;2023-11-21T00:44:17;2.45;;;1.92;;
32533;SDS011;18973;48.580;8.912;2023-11-21T00:46:43;2.53;;;1.63;;
32533;SDS011;18973;48.580;8.912;2023-11-21T00:49:09;6.32;;;2.25;;
32533;SDS011;18973;48.580;8.912;2023-11-21T00:51:35;4.50;;;2.22;;
32533;SDS011;18973;48.580;8.912;2023-11-21T00:54:01;8.68;;;2.53;;
32533;SDS011;18973;48.580;8.912;2023-11-21T00:56:27;6.78;;;1.90;;
32533;SDS011;18973;48.580;8.912;2023-11-21T00:58:53;6.90;;;1.92;;
32533;SDS011;18973;48.580;8.912;2023-11-21T01:01:19;3.00;;;2.03;;
32533;SDS011;18973;48.580;8.912;2023-11-21T01:03:48;5.25;;;2.20;;
32533;SDS011;18973;48.580;8.912;2023-11-21T01:06:14;2.65;;;1.80;;
32533;SDS011;18973;48.580;8.912;2023-11-21T01:08:40;5.05;;;2.72;;
32533;SDS011;18973;48.580;8.912;2023-11-21T01:11:06;5.07;;;1.80;;
32533;SDS011;18973;48.580;8.912;2023-11-21T01:13:36;3.38;;;1.92;;
32533;SDS011;18973;48.580;8.912;2023-11-21T01:16:03;3.67;;;2.00;;
32533;SDS011;18973;48.580;8.912;2023-11-21T01:18:29;5.15;;;1.83;;
32533;SDS011;18973;48.580;8.912;2023-11-21T01:20:54;6.30;;;1.70;;
32533;SDS011;18973;48.580;8.912;2023-11-21T01:23:20;11.90;;;1.80;;
32533;SDS011;18973;48.580;8.912;2023-11-21T01:25:46;7.07;;;2.28;;
32533;SDS011;18973;48.580;8.912;2023-11-21T01:28:12;5.25;;;1.70;;
32533;SDS011;18973;48.580;8.912;2023-11-21T01:30:37;4.22;;;2.97;;
32533;SDS011;18973;48.580;8.912;2023-11-21T01:33:04;5.85;;;1.80;;
32533;SDS011;18973;48.580;8.912;2023-11-21T01:35:32;5.43;;;1.75;;
32533;SDS011;18973;48.580;8.912;2023-11-21T01:37:59;4.10;;;1.98;;
32533;SDS011;18973;48.580;8.912;2023-11-21T01:40:24;3.95;;;2.00;;
32533;SDS011;18973;48.580;8.912;2023-11-21T01:42:50;5.53;;;1.50;;
32533;SDS011;18973;48.580;8.912;2023-11-21T01:45:18;2.03;;;1.50;;
32533;SDS011;18973;48.580;8.912;2023-11-21T01:47:44;2.28;;;1.60;;
32533;SDS011;18973;48.580;8.912;2023-11-21T01:50:12;4.55;;;1.75;;
32533;SDS011;18973;48.580;8.912;2023-11-21T01:52:41;3.17;;;1.40;;
32533;SDS011;18973;48.580;8.912;2023-11-21T01:55:09;1.92;;;1.50;;
32533;SDS011;18973;48.580;8.912;2023-11-21T01:57:37;1.98;;;1.50;;
32533;SDS011;18973;48.580;8.912;2023-11-21T02:00:03;4.25;;;1.63;;
32533;SDS011;18973;48.580;8.912;2023-11-21T02:02:41;3.58;;;1.33;;
32533;SDS011;18973;48.580;8.912;2023-11-21T02:05:09;1.48;;;1.30;;
32533;SDS011;18973;48.580;8.912;2023-11-21T02:07:37;4.05;;;1.77;;
32533;SDS011;18973;48.580;8.912;2023-11-21T02:10:04;5.05;;;1.40;;
32533;SDS011;18973;48.580;8.912;2023-11-21T02:12:30;3.08;;;1.38;;
32533;SDS011;18973;48.580;8.912;2023-11-21T02:14:56;4.78;;;2.05;;
32533;SDS011;18973;48.580;8.912;2023-11-21T02:17:21;1.40;;;1.30;;
32533;SDS011;18973;48.580;8.912;2023-11-21T02:19:47;3.17;;;2.08;;
32533;SDS011;18973;48.580;8.912;2023-11-21T02:22:16;1.42;;;1.33;;
32533;SDS011;18973;48.580;8.912;2023-11-21T02:24:45;2.60;;;1.45;;
32533;SDS011;18973;48.580;8.912;2023-11-21T02:27:11;1.52;;;1.27;;
32533;SDS011;18973;48.580;8.912;2023-11-21T02:29:38;2.63;;;1.58;;
32533;SDS011;18973;48.580;8.912;2023-11-21T02:32:04;2.53;;;1.42;;
32533;SDS011;18973;48.580;8.912;2023-11-21T02:34:30;2.78;;;1.40;;
32533;SDS011;18973;48.580;8.912;2023-11-21T02:36:56;3.53;;;1.48;;
32533;SDS011;18973;48.580;8.912;2023-11-21T02:39:22;2.40;;;1.25;;
32533;SDS011;18973;48.580;8.912;2023-11-21T02:41:49;1.52;;;1.27;;
32533;SDS011;18973;48.580;8.912;2023-11-21T02:44:15;2.88;;;1.40;;
32533;SDS011;18973;48.580;8.912;2023-11-21T02:46:40;6.63;;;1.40;;
32533;SDS011;18973;48.580;8.912;2023-11-21T02:49:06;2.88;;;1.27;;
32533;SDS011;18973;48.580;8.912;2023-11-21T02:51:32;2.33;;;1.40;;
32533;SDS011;18973;48.580;8.912;2023-11-21T02:53:58;4.03;;;1.10;;
32533;SDS011;18973;48.580;8.912;2023-11-21T02:56:26;1.25;;;1.00;;
32533;SDS011;18973;48.580;8.912;2023-11-21T02:58:52;6.50;;;1.40;;
32533;SDS011;18973;48.580;8.912;2023-11-21T03:01:20;4.05;;;1.45;;
32533;SDS011;18973;48.580;8.912;2023-11-21T03:03:46;2.40;;;1.27;;
32533;SDS011;18973;48.580;8.912;2023-11-21T03:06:12;1.98;;;1.35;;
32533;SDS011;18973;48.580;8.912;2023-11-21T03:08:38;1.00;;;1.00;;
32533;SDS011;18973;48.580;8.912;2023-11-21T03:11:04;2.17;;;1.30;;
32533;SDS011;18973;48.580;8.912;2023-11-21T03:13:29;2.08;;;1.10;;
32533;SDS011;18973;48.580;8.912;2023-11-21T03:15:55;3.72;;;1.35;;
32533;SDS011;18973;48.580;8.912;2023-11-21T03:18:21;2.70;;;1.20;;
32533;SDS011;18973;48.580;8.912;2023-11-21T03:20:50;1.38;;;0.90;;
32533;SDS011;18973;48.580;8.912;2023-11-21T03:23:19;1.65;;;1.10;;
32533;SDS011;18973;48.580;8.912;2023-11-21T03:25:45;3.55;;;1.13;;
32533;SDS011;18973;48.580;8.912;2023-11-21T03:28:11;1.33;;;1.10;;
32533;SDS011;18973;48.580;8.912;2023-11-21T03:30:36;3.95;;;1.10;;
32533;SDS011;18973;48.580;8.912;2023-11-21T03:33:02;1.27;;;1.13;;
32533;SDS011;18973;48.580;8.912;2023-11-21T03:35:28;1.88;;;1.30;;
32533;SDS011;18973;48.580;8.912;2023-11-21T03:37:53;2.20;;;1.25;;
32533;SDS011;18973;48.580;8.912;2023-11-21T03:40:19;2.45;;;1.17;;
32533;SDS011;18973;48.580;8.912;2023-11-21T03:42:48;2.47;;;1.33;;
32533;SDS011;18973;48.580;8.912;2023-11-21T03:45:13;1.95;;;1.20;;
32533;SDS011;18973;48.580;8.912;2023-11-21T03:47:41;1.42;;;1.10;;
32533;SDS011;18973;48.580;8.912;2023-11-21T03:50:07;1.35;;;1.25;;
32533;SDS011;18973;48.580;8.912;2023-11-21T03:52:34;1.33;;;1.05;;
32533;SDS011;18973;48.580;8.912;2023-11-21T03:55:03;2.60;;;1.40;;
32533;SDS011;18973;48.580;8.912;2023-11-21T03:57:29;1.10;;;1.00;;
32533;SDS011;18973;48.580;8.912;2023-11-21T03:59:55;2.83;;;1.50;;
32533;SDS011;18973;48.580;8.912;2023-11-21T04:02:20;1.13;;;1.10;;
32533;SDS011;18973;48.580;8.912;2023-11-21T04:04:46;2.17;;;1.30;;
32533;SDS011;18973;48.580;8.912;2023-11-21T04:07:12;3.88;;;1.15;;
32533;SDS011;18973;48.580;8.912;2023-11-21T04:09:38;1.27;;;1.17;;
32533;SDS011;18973;48.580;8.912;2023-11-21T04:12:04;1.50;;;1.20;;
32533;SDS011;18973;48.580;8.912;2023-11-21T04:14:30;2.10;;;1.20;;
32533;SDS011;18973;48.580;8.912;2023-11-21T04:16:56;2.10;;;1.90;;
32533;SDS011;18973;48.580;8.912;2023-11-21T04:19:22;3.05;;;2.33;;
32533;SDS011;18973;48.580;8.912;2023-11-21T04:21:48;1.52;;;1.20;;
32533;SDS011;18973;48.580;8.912;2023-11-21T04:24:14;1.75;;;1.17;;
32533;SDS011;18973;48.580;8.912;2023-11-21T04:26:39;2.15;;;1.45;;
32533;SDS011;18973;48.580;8.912;2023-11-21T04:29:05;1.45;;;1.00;;
32533;SDS011;18973;48.580;8.912;2023-11-21T04:31:31;1.10;;;1.00;;
32533;SDS011;18973;48.580;8.912;2023-11-21T04:33:57;1.33;;;1.00;;
32533;SDS011;18973;48.580;8.912;2023-11-21T04:36:22;1.27;;;1.00;;
32533;SDS011;18973;48.580;8.912;2023-11-21T04:38:48;1.10;;;1.10;;
32533;SDS011;18973;48.580;8.912;2023-11-21T04:41:14;4.55;;;1.30;;
32533;SDS011;18973;48.580;8.912;2023-11-21T04:43:39;3.95;;;1.30;;
32533;SDS011;18973;48.580;8.912;2023-11-21T04:46:05;1.02;;;1.02;;
32533;SDS011;18973;48.580;8.912;2023-11-21T04:48:32;1.80;;;1.00;;
32533;SDS011;18973;48.580;8.912;2023-11-21T04:50:58;3.20;;;1.45;;
32533;SDS011;18973;48.580;8.912;2023-11-21T04:53:23;4.30;;;2.10;;
32533;SDS011;18973;48.580;8.912;2023-11-21T04:55:49;2.47;;;1.35;;
32533;SDS011;18973;48.580;8.912;2023-11-21T04:58:15;1.92;;;1.40;;
32533;SDS011;18973;48.580;8.912;2023-11-21T05:00:40;2.85;;;1.75;;
32533;SDS011;18973;48.580;8.912;2023-11-21T05:03:06;4.22;;;1.33;;
32533;SDS011;18973;48.580;8.912;2023-11-21T05:05:32;1.60;;;1.50;;
32533;SDS011;18973;48.580;8.912;2023-11-21T05:08:01;1.90;;;1.73;;
32533;SDS011;18973;48.580;8.912;2023-11-21T05:10:27;2.03;;;1.40;;
32533;SDS011;18973;48.580;8.912;2023-11-21T05:12:54;1.33;;;1.17;;
32533;SDS011;18973;48.580;8.912;2023-11-21T05:15:20;1.48;;;1.38;;
32533;SDS011;18973;48.580;8.912;2023-11-21T05:17:46;1.27;;;1.17;;
32533;SDS011;18973;48.580;8.912;2023-11-21T05:20:15;2.85;;;1.20;;
32533;SDS011;18973;48.580;8.912;2023-11-21T05:22:48;2.72;;;1.30;;
32533;SDS011;18973;48.580;8.912;2023-11-21T05:25:16;1.25;;;1.23;;
32533;SDS011;18973;48.580;8.912;2023-11-21T05:27:43;1.58;;;1.20;;
32533;SDS011;18973;48.580;8.912;2023-11-21T05:30:10;2.30;;;1.42;;
32533;SDS011;18973;48.580;8.912;2023-11-21T05:32:36;3.88;;;1.58;;
32533;SDS011;18973;48.580;8.912;2023-11-21T05:35:03;1.70;;;1.50;;
32533;SDS011;18973;48.580;8.912;2023-11-21T05:37:34;3.38;;;1.73;;
32533;SDS011;18973;48.580;8.912;2023-11-21T05:40:01;4.00;;;1.80;;
32533;SDS011;18973;48.580;8.912;2023-11-21T05:42:31;1.40;;;1.30;;
32533;SDS011;18973;48.580;8.912;2023-11-21T05:44:57;1.42;;;1.30;;
32533;SDS011;18973;48.580;8.912;2023-11-21T05:47:24;1.45;;;1.30;;
32533;SDS011;18973;48.580;8.912;2023-11-21T05:49:51;3.72;;;1.30;;
32533;SDS011;18973;48.580;8.912;2023-11-21T05:52:17;4.10;;;1.63;;
32533;SDS011;18973;48.580;8.912;2023-11-21T05:54:43;1.10;;;1.10;;
32533;SDS011;18973;48.580;8.912;2023-11-21T05:57:09;1.80;;;1.58;;
32533;SDS011;18973;48.580;8.912;2023-11-21T05:59:34;1.75;;;1.42;;
32533;SDS011;18973;48.580;8.912;2023-11-21T06:02:00;1.27;;;1.20;;
32533;SDS011;18973;48.580;8.912;2023-11-21T06:04:27;1.65;;;1.30;;
32533;SDS011;18973;48.580;8.912;2023-11-21T06:06:52;2.10;;;1.67;;
32533;SDS011;18973;48.580;8.912;2023-11-21T06:09:18;1.45;;;1.35;;
32533;SDS011;18973;48.580;8.912;2023-11-21T06:11:45;1.48;;;1.38;;
32533;SDS011;18973;48.580;8.912;2023-11-21T06:14:11;1.92;;;1.70;;
32533;SDS011;18973;48.580;8.912;2023-11-21T06:16:37;4.97;;;1.85;;
32533;SDS011;18973;48.580;8.912;2023-11-21T06:19:02;3.67;;;1.40;;
32533;SDS011;18973;48.580;8.912;2023-11-21T06:21:28;1.60;;;1.50;;
32533;SDS011;18973;48.580;8.912;2023-11-21T06:23:55;2.63;;;1.50;;
32533;SDS011;18973;48.580;8.912;2023-11-21T06:26:22;2.17;;;1.80;;
32533;SDS011;18973;48.580;8.912;2023-11-21T06:28:47;5.72;;;2.78;;
32533;SDS011;18973;48.580;8.912;2023-11-21T06:31:16;3.20;;;2.22;;
32533;SDS011;18973;48.580;8.912;2023-11-21T06:33:42;7.63;;;3.70;;
32533;SDS011;18973;48.580;8.912;2023-11-21T06:36:08;9.32;;;5.53;;
32533;SDS011;18973;48.580;8.912;2023-11-21T06:38:36;6.28;;;2.65;;
32533;SDS011;18973;48.580;8.912;2023-11-21T06:41:02;2.45;;;2.13;;
32533;SDS011;18973;48.580;8.912;2023-11-21T06:43:29;2.13;;;1.92;;
32533;SDS011;18973;48.580;8.912;2023-11-21T06:45:56;3.78;;;1.98;;
32533;SDS011;18973;48.580;8.912;2023-11-21T06:48:22;2.22;;;1.95;;
32533;SDS011;18973;48.580;8.912;2023-11-21T06:50:48;2.53;;;1.73;;
32533;SDS011;18973;48.580;8.912;2023-11-21T06:53:14;1.90;;;1.80;;
32533;SDS011;18973;48.580;8.912;2023-11-21T06:55:40;2.28;;;1.95;;
32533;SDS011;18973;48.580;8.912;2023-11-21T06:58:05;1.80;;;1.67;;
32533;SDS011;18973;48.580;8.912;2023-11-21T07:00:34;1.73;;;1.63;;
32533;SDS011;18973;48.580;8.912;2023-11-21T07:02:59;1.88;;;1.75;;
32533;SDS011;18973;48.580;8.912;2023-11-21T07:05:25;2.03;;;1.77;;
32533;SDS011;18973;48.580;8.912;2023-11-21T07:07:51;4.13;;;1.52;;
32533;SDS011;18973;48.580;8.912;2023-11-21T07:10:19;1.88;;;1.50;;
32533;SDS011;18973;48.580;8.912;2023-11-21T07:12:45;1.95;;;1.60;;
32533;SDS011;18973;48.580;8.912;2023-11-21T07:15:11;2.78;;;1.55;;
32533;SDS011;18973;48.580;8.912;2023-11-21T07:17:37;1.60;;;1.40;;
32533;SDS011;18973;48.580;8.912;2023-11-21T07:20:03;1.60;;;1.50;;
32533;SDS011;18973;48.580;8.912;2023-11-21T07:22:29;1.45;;;1.30;;
32533;SDS011;18973;48.580;8.912;2023-11-21T07:24:55;4.53;;;1.50;;
32533;SDS011;18973;48.580;8.912;2023-11-21T07:27:24;1.65;;;1.55;;
32533;SDS011;18973;48.580;8.912;2023-11-21T07:29:49;1.33;;;1.30;;
32533;SDS011;18973;48.580;8.912;2023-11-21T07:32:15;1.42;;;1.33;;
32533;SDS011;18973;48.580;8.912;2023-11-21T07:34:41;1.67;;;1.48;;
32533;SDS011;18973;48.580;8.912;2023-11-21T07:37:07;1.75;;;1.65;;
32533;SDS011;18973;48.580;8.912;2023-11-21T07:39:34;1.80;;;1.67;;
32533;SDS011;18973;48.580;8.912;2023-11-21T07:42:01;2.60;;;2.10;;
32533;SDS011;18973;48.580;8.912;2023-11-21T07:44:27;3.83;;;1.90;;
32533;SDS011;18973;48.580;8.912;2023-11-21T07:46:54;2.28;;;2.05;;
32533;SDS011;18973;48.580;8.912;2023-11-21T07:49:22;3.30;;;1.88;;
32533;SDS011;18973;48.580;8.912;2023-11-21T07:51:49;3.17;;;1.70;;
32533;SDS011;18973;48.580;8.912;2023-11-21T07:54:14;2.30;;;1.50;;
32533;SDS011;18973;48.580;8.912;2023-11-21T07:56:41;3.72;;;1.70;;
32533;SDS011;18973;48.580;8.912;2023-11-21T07:59:07;2.53;;;1.92;;
32533;SDS011;18973;48.580;8.912;2023-11-21T08:01:33;2.75;;;1.70;;
32533;SDS011;18973;48.580;8.912;2023-11-21T08:03:59;2.00;;;1.55;;
32533;SDS011;18973;48.580;8.912;2023-11-21T08:06:28;4.38;;;1.90;;
32533;SDS011;18973;48.580;8.912;2023-11-21T08:08:57;4.70;;;1.45;;
32533;SDS011;18973;48.580;8.912;2023-11-21T08:11:23;4.10;;;1.40;;
32533;SDS011;18973;48.580;8.912;2023-11-21T08:13:49;2.70;;;1.77;;
32533;SDS011;18973;48.580;8.912;2023-11-21T08:16:15;1.92;;;1.40;;
32533;SDS011;18973;48.580;8.912;2023-11-21T08:18:41;2.50;;;2.30;;
32533;SDS011;18973;48.580;8.912;2023-11-21T08:21:07;1.60;;;1.50;;
32533;SDS011;18973;48.580;8.912;2023-11-21T08:23:33;4.35;;;1.58;;
32533;SDS011;18973;48.580;8.912;2023-11-21T08:25:59;3.50;;;1.48;;
32533;SDS011;18973;48.580;8.912;2023-11-21T08:28:25;2.38;;;1.63;;
32533;SDS011;18973;48.580;8.912;2023-11-21T08:30:54;1.60;;;1.35;;
32533;SDS011;18973;48.580;8.912;2023-11-21T08:33:19;3.42;;;1.40;;
32533;SDS011;18973;48.580;8.912;2023-11-21T08:35:45;1.40;;;1.30;;
32533;SDS011;18973;48.580;8.912;2023-11-21T08:38:11;2.53;;;1.58;;
32533;SDS011;18973;48.580;8.912;2023-11-21T08:40:37;4.97;;;1.85;;
32533;SDS011;18973;48.580;8.912;2023-11-21T08:43:03;2.80;;;1.50;;
32533;SDS011;18973;48.580;8.912;2023-11-21T08:45:33;5.78;;;1.60;;
32533;SDS011;18973;48.580;8.912;2023-11-21T08:47:59;1.58;;;1.40;;
32533;SDS011;18973;48.580;8.912;2023-11-21T08:50:28;2.00;;;1.67;;
32533;SDS011;18973;48.580;8.912;2023-11-21T08:52:54;3.17;;;1.60;;
32533;SDS011;18973;48.580;8.912;2023-11-21T08:55:19;2.55;;;1.80;;
32533;SDS011;18973;48.580;8.912;2023-11-21T08:57:45;4.55;;;1.80;;
32533;SDS011;18973;48.580;8.912;2023-11-21T09:00:14;5.47;;;2.03;;
32533;SDS011;18973;48.580;8.912;2023-11-21T09:02:42;2.95;;;1.60;;
32533;SDS011;18973;48.580;8.912;2023-11-21T09:05:08;3.85;;;2.13;;
32533;SDS011;18973;48.580;8.912;2023-11-21T09:07:36;2.85;;;2.10;;
32533;SDS011;18973;48.580;8.912;2023-11-21T09:10:05;2.10;;;1.90;;
32533;SDS011;18973;48.580;8.912;2023-11-21T09:12:34;3.75;;;2.40;;
32533;SDS011;18973;48.580;8.912;2023-11-21T09:15:02;5.57;;;1.92;;
32533;SDS011;18973;48.580;8.912;2023-11-21T09:17:32;7.82;;;1.92;;
32533;SDS011;18973;48.580;8.912;2023-11-21T09:19:59;3.53;;;1.70;;
32533;SDS011;18973;48.580;8.912;2023-11-21T09:22:24;3.55;;;2.03;;
32533;SDS011;18973;48.580;8.912;2023-11-21T09:24:53;2.70;;;1.95;;
32533;SDS011;18973;48.580;8.912;2023-11-21T09:27:19;5.22;;;2.55;;
32533;SDS011;18973;48.580;8.912;2023-11-21T09:29:46;3.35;;;1.95;;
32533;SDS011;18973;48.580;8.912;2023-11-21T09:32:12;3.75;;;1.63;;
32533;SDS011;18973;48.580;8.912;2023-11-21T09:34:41;1.77;;;1.65;;
32533;SDS011;18973;48.580;8.912;2023-11-21T09:37:07;8.98;;;2.45;;
32533;SDS011;18973;48.580;8.912;2023-11-21T09:39:33;1.70;;;1.50;;
32533;SDS011;18973;48.580;8.912;2023-11-21T09:42:04;4.78;;;1.75;;
32533;SDS011;18973;48.580;8.912;2023-11-21T09:44:46;2.75;;;2.03;;
32533;SDS011;18973;48.580;8.912;2023-11-21T09:47:20;1.88;;;1.48;;
32533;SDS011;18973;48.580;8.912;2023-11-21T09:49:47;10.25;;;1.90;;
32533;SDS011;18973;48.580;8.912;2023-11-21T09:52:27;2.40;;;1.70;;
32533;SDS011;18973;48.580;8.912;2023-11-21T09:54:53;2.80;;;1.48;;
32533;SDS011;18973;48.580;8.912;2023-11-21T09:57:22;2.72;;;1.60;;
32533;SDS011;18973;48.580;8.912;2023-11-21T09:59:52;1.50;;;1.40;;
32533;SDS011;18973;48.580;8.912;2023-11-21T10:02:22;3.58;;;2.13;;
32533;SDS011;18973;48.580;8.912;2023-11-21T10:04:51;2.28;;;1.52;;
32533;SDS011;18973;48.580;8.912;2023-11-21T10:07:17;2.92;;;1.98;;
32533;SDS011;18973;48.580;8.912;2023-11-21T10:09:45;1.60;;;1.50;;
32533;SDS011;18973;48.580;8.912;2023-11-21T10:12:13;1.92;;;1.75;;
32533;SDS011;18973;48.580;8.912;2023-11-21T10:14:41;1.67;;;1.55;;
32533;SDS011;18973;48.580;8.912;2023-11-21T10:17:07;1.90;;;1.65;;
32533;SDS011;18973;48.580;8.912;2023-11-21T10:19:37;2.42;;;1.88;;
32533;SDS011;18973;48.580;8.912;2023-11-21T10:22:04;2.30;;;1.38;;
32533;SDS011;18973;48.580;8.912;2023-11-21T10:24:32;1.50;;;1.35;;
32533;SDS011;18973;48.580;8.912;2023-11-21T10:26:58;4.10;;;1.48;;
32533;SDS011;18973;48.580;8.912;2023-11-21T10:29:28;2.05;;;1.30;;
32533;SDS011;18973;48.580;8.912;2023-11-21T10:31:55;1.10;;;1.10;;
32533;SDS011;18973;48.580;8.912;2023-11-21T10:34:23;2.97;;;1.25;;
32533;SDS011;18973;48.580;8.912;2023-11-21T10:36:52;1.13;;;1.05;;
32533;SDS011;18973;48.580;8.912;2023-11-21T10:39:18;4.38;;;1.27;;
32533;SDS011;18973;48.580;8.912;2023-11-21T10:41:45;2.65;;;1.40;;
32533;SDS011;18973;48.580;8.912;2023-11-21T10:44:15;3.33;;;2.33;;
32533;SDS011;18973;48.580;8.912;2023-11-21T10:46:52;1.88;;;1.40;;
32533;SDS011;18973;48.580;8.912;2023-11-21T10:49:21;1.77;;;1.48;;
32533;SDS011;18973;48.580;8.912;2023-11-21T10:51:51;1.67;;;1.40;;
32533;SDS011;18973;48.580;8.912;2023-11-21T10:54:21;1.77;;;1.30;;
32533;SDS011;18973;48.580;8.912;2023-11-21T10:56:48;2.20;;;1.40;;
32533;SDS011;18973;48.580;8.912;2023-11-21T10:59:16;1.90;;;1.38;;
32533;SDS011;18973;48.580;8.912;2023-11-21T11:01:44;2.53;;;1.50;;
32533;SDS011;18973;48.580;8.912;2023-11-21T11:04:11;3.80;;;1.40;;
32533;SDS011;18973;48.580;8.912;2023-11-21T11:06:51;3.22;;;1.38;;
32533;SDS011;18973;48.580;8.912;2023-11-21T11:09:21;1.73;;;1.30;;
32533;SDS011;18973;48.580;8.912;2023-11-21T11:11:47;1.30;;;1.20;;
32533;SDS011;18973;48.580;8.912;2023-11-21T11:14:14;4.63;;;1.58;;
32533;SDS011;18973;48.580;8.912;2023-11-21T11:16:41;2.22;;;1.50;;
32533;SDS011;18973;48.580;8.912;2023-11-21T11:19:08;1.90;;;1.55;;
32533;SDS011;18973;48.580;8.912;2023-11-21T11:21:44;2.30;;;1.70;;
32533;SDS011;18973;48.580;8.912;2023-11-21T11:24:26;3.90;;;1.63;;
32533;SDS011;18973;48.580;8.912;2023-11-21T11:27:10;2.58;;;2.25;;
32533;SDS011;18973;48.580;8.912;2023-11-21T11:29:56;2.45;;;1.90;;
32533;SDS011;18973;48.580;8.912;2023-11-21T11:38:36;3.13;;;2.53;;
32533;SDS011;18973;48.580;8.912;2023-11-21T11:41:02;2.83;;;2.28;;
32533;SDS011;18973;48.580;8.912;2023-11-21T11:43:30;4.22;;;2.10;;
32533;SDS011;18973;48.580;8.912;2023-11-21T11:46:02;5.10;;;2.45;;
32533;SDS011;18973;48.580;8.912;2023-11-21T11:48:28;2.10;;;1.83;;
32533;SDS011;18973;48.580;8.912;2023-11-21T11:51:10;8.00;;;2.22;;
32533;SDS011;18973;48.580;8.912;2023-11-21T11:53:40;10.48;;;3.05;;
32533;SDS011;18973;48.580;8.912;2023-11-21T11:56:28;3.08;;;1.67;;
32533;SDS011;18973;48.580;8.912;2023-11-21T11:58:57;2.42;;;2.22;;
32533;SDS011;18973;48.580;8.912;2023-11-21T12:01:26;5.10;;;2.28;;
32533;SDS011;18973;48.580;8.912;2023-11-21T12:06:41;6.25;;;1.80;;
32533;SDS011;18973;48.580;8.912;2023-11-21T12:09:07;1.83;;;1.25;;
32533;SDS011;18973;48.580;8.912;2023-11-21T12:11:45;1.02;;;1.00;;
32533;SDS011;18973;48.580;8.912;2023-11-21T12:14:12;1.10;;;1.05;;
32533;SDS011;18973;48.580;8.912;2023-11-21T12:16:39;1.10;;;1.10;;
32533;SDS011;18973;48.580;8.912;2023-11-21T12:19:05;2.95;;;1.48;;
32533;SDS011;18973;48.580;8.912;2023-11-21T12:21:30;2.03;;;1.88;;
32533;SDS011;18973;48.580;8.912;2023-11-21T12:23:57;1.67;;;1.58;;
32533;SDS011;18973;48.580;8.912;2023-11-21T12:26:26;11.27;;;4.60;;
32533;SDS011;18973;48.580;8.912;2023-11-21T12:28:52;8.20;;;4.88;;
32533;SDS011;18973;48.580;8.912;2023-11-21T12:31:21;2.80;;;1.80;;
32533;SDS011;18973;48.580;8.912;2023-11-21T12:33:48;3.20;;;2.45;;
32533;SDS011;18973;48.580;8.912;2023-11-21T12:36:14;7.13;;;3.80;;
32533;SDS011;18973;48.580;8.912;2023-11-21T12:38:40;5.43;;;2.30;;
32533;SDS011;18973;48.580;8.912;2023-11-21T12:41:07;3.13;;;2.03;;
32533;SDS011;18973;48.580;8.912;2023-11-21T12:43:33;1.45;;;1.27;;
32533;SDS011;18973;48.580;8.912;2023-11-21T12:46:12;2.35;;;1.98;;
32533;SDS011;18973;48.580;8.912;2023-11-21T12:48:43;4.88;;;3.20;;
32533;SDS011;18973;48.580;8.912;2023-11-21T12:51:10;7.75;;;2.90;;
32533;SDS011;18973;48.580;8.912;2023-11-21T12:53:37;7.80;;;2.88;;
32533;SDS011;18973;48.580;8.912;2023-11-21T12:56:10;5.90;;;3.55;;
32533;SDS011;18973;48.580;8.912;2023-11-21T12:58:37;5.05;;;3.30;;
32533;SDS011;18973;48.580;8.912;2023-11-21T13:01:07;2.13;;;1.90;;
32533;SDS011;18973;48.580;8.912;2023-11-21T13:03:44;2.35;;;2.08;;
32533;SDS011;18973;48.580;8.912;2023-11-21T13:06:13;3.03;;;2.75;;
32533;SDS011;18973;48.580;8.912;2023-11-21T13:08:43;4.57;;;3.03;;
32533;SDS011;18973;48.580;8.912;2023-11-21T13:11:10;4.15;;;3.03;;
32533;SDS011;18973;48.580;8.912;2023-11-21T13:13:36;2.67;;;2.47;;
32533;SDS011;18973;48.580;8.912;2023-11-21T13:16:05;3.20;;;2.47;;
32533;SDS011;18973;48.580;8.912;2023-11-21T13:18:33;3.17;;;2.60;;
32533;SDS011;18973;48.580;8.912;2023-11-21T13:20:59;3.42;;;2.90;;
32533;SDS011;18973;48.580;8.912;2023-11-21T13:23:39;3.85;;;3.45;;
32533;SDS011;18973;48.580;8.912;2023-11-21T13:26:07;4.85;;;3.35;;
32533;SDS011;18973;48.580;8.912;2023-11-21T13:28:34;5.45;;;4.07;;
32533;SDS011;18973;48.580;8.912;2023-11-21T13:31:01;3.85;;;3.45;;
32533;SDS011;18973;48.580;8.912;2023-11-21T13:33:46;4.57;;;3.40;;
32533;SDS011;18973;48.580;8.912;2023-11-21T13:36:19;4.97;;;3.80;;
32533;SDS011;18973;48.580;8.912;2023-11-21T13:38:48;5.65;;;3.83;;
32533;SDS011;18973;48.580;8.912;2023-11-21T13:41:15;5.32;;;4.03;;
32533;SDS011;18973;48.580;8.912;2023-11-21T13:43:42;4.85;;;3.90;;
32533;SDS011;18973;48.580;8.912;2023-11-21T13:46:15;5.30;;;3.88;;
32533;SDS011;18973;48.580;8.912;2023-11-21T13:48:46;5.13;;;4.05;;
32533;SDS011;18973;48.580;8.912;2023-11-21T13:51:18;4.43;;;3.53;;
32533;SDS011;18973;48.580;8.912;2023-11-21T13:53:48;5.88;;;4.07;;
32533;SDS011;18973;48.580;8.912;2023-11-21T13:56:18;9.95;;;3.65;;
32533;SDS011;18973;48.580;8.912;2023-11-21T13:58:49;6.95;;;3.60;;
32533;SDS011;18973;48.580;8.912;2023-11-21T14:01:19;6.82;;;4.43;;
32533;SDS011;18973;48.580;8.912;2023-11-21T14:03:55;5.68;;;4.13;;
32533;SDS011;18973;48.580;8.912;2023-11-21T14:06:45;5.05;;;3.60;;
32533;SDS011;18973;48.580;8.912;2023-11-21T14:09:21;5.88;;;4.35;;
32533;SDS011;18973;48.580;8.912;2023-11-21T14:11:54;8.57;;;4.30;;
32533;SDS011;18973;48.580;8.912;2023-11-21T14:14:22;5.50;;;3.97;;
32533;SDS011;18973;48.580;8.912;2023-11-21T14:16:50;2.92;;;2.53;;
32533;SDS011;18973;48.580;8.912;2023-11-21T14:19:16;3.35;;;2.95;;
32533;SDS011;18973;48.580;8.912;2023-11-21T14:21:46;5.85;;;3.03;;
32533;SDS011;18973;48.580;8.912;2023-11-21T14:24:14;5.20;;;2.25;;
32533;SDS011;18973;48.580;8.912;2023-11-21T14:26:42;2.63;;;1.83;;
32533;SDS011;18973;48.580;8.912;2023-11-21T14:29:11;1.85;;;1.70;;
32533;SDS011;18973;48.580;8.912;2023-11-21T14:31:39;2.80;;;1.60;;
32533;SDS011;18973;48.580;8.912;2023-11-21T14:34:06;3.47;;;2.40;;
32533;SDS011;18973;48.580;8.912;2023-11-21T14:36:33;1.95;;;1.48;;
32533;SDS011;18973;48.580;8.912;2023-11-21T14:38:59;2.85;;;1.77;;
32533;SDS011;18973;48.580;8.912;2023-11-21T14:41:25;3.28;;;1.70;;
32533;SDS011;18973;48.580;8.912;2023-11-21T14:43:52;2.60;;;1.95;;
32533;SDS011;18973;48.580;8.912;2023-11-21T14:46:19;1.73;;;1.60;;
32533;SDS011;18973;48.580;8.912;2023-11-21T14:48:45;4.38;;;1.90;;
32533;SDS011;18973;48.580;8.912;2023-11-21T14:51:24;3.92;;;2.10;;
32533;SDS011;18973;48.580;8.912;2023-11-21T14:53:50;1.60;;;1.50;;
32533;SDS011;18973;48.580;8.912;2023-11-21T14:56:20;3.90;;;2.90;;
32533;SDS011;18973;48.580;8.912;2023-11-21T14:58:53;4.85;;;3.25;;